createdAt,value
2018-12-25T00:00:10.468Z,14.8
2018-12-25T00:00:42.456Z,14.9
2018-12-25T00:01:14.555Z,14.82
2018-12-25T00:01:46.529Z,14.89
2018-12-25T00:02:18.508Z,14.75
2018-12-25T00:02:50.500Z,14.83
2018-12-25T00:03:22.487Z,14.85
2018-12-25T00:03:54.481Z,14.8
2018-12-25T00:04:26.469Z,14.77
2018-12-25T00:04:58.441Z,14.83
2018-12-25T00:05:30.476Z,14.83
2018-12-25T00:06:02.448Z,14.79
2018-12-25T00:06:34.433Z,14.8
2018-12-25T00:07:06.415Z,14.82
2018-12-25T00:07:38.412Z,14.82
2018-12-25T00:08:10.413Z,14.82
2018-12-25T00:08:42.403Z,14.82
2018-12-25T00:09:14.407Z,14.86
2018-12-25T00:09:46.392Z,14.75
2018-12-25T00:10:18.360Z,14.79
2018-12-25T00:10:50.360Z,14.79
2018-12-25T00:11:22.320Z,14.89
2018-12-25T00:11:54.307Z,14.8
2018-12-25T00:12:26.268Z,14.82
2018-12-25T00:12:58.228Z,14.79
2018-12-25T00:13:30.205Z,14.82
2018-12-25T00:14:02.180Z,14.9
2018-12-25T00:14:34.177Z,14.77
2018-12-25T00:15:06.147Z,14.8
2018-12-25T00:15:38.150Z,14.8
2018-12-25T00:16:10.143Z,14.85
2018-12-25T00:16:42.152Z,14.87
2018-12-25T00:17:14.144Z,14.87
2018-12-25T00:17:46.094Z,14.77
2018-12-25T00:18:18.060Z,14.82
2018-12-25T00:18:50.048Z,14.75
2018-12-25T00:19:22.038Z,14.75
2018-12-25T00:19:54.022Z,14.83
2018-12-25T00:20:25.987Z,14.77
2018-12-25T00:20:57.954Z,14.79
2018-12-25T00:21:29.939Z,14.8
2018-12-25T00:22:01.927Z,14.74
2018-12-25T00:22:33.905Z,14.77
2018-12-25T00:23:05.878Z,14.85
2018-12-25T00:23:37.854Z,14.82
2018-12-25T00:24:09.821Z,14.83
2018-12-25T00:24:41.806Z,14.8
2018-12-25T00:25:13.781Z,14.9
2018-12-25T00:25:45.762Z,14.79
2018-12-25T00:26:17.764Z,14.9
2018-12-25T00:26:49.753Z,14.8
2018-12-25T00:27:21.730Z,14.82
2018-12-25T00:27:53.710Z,14.89
2018-12-25T00:28:25.675Z,14.83
2018-12-25T00:28:57.650Z,14.83
2018-12-25T00:29:29.609Z,14.82
2018-12-25T00:30:01.626Z,14.93
2018-12-25T00:30:33.601Z,14.79
2018-12-25T00:31:05.663Z,14.8
2018-12-25T00:31:37.641Z,14.8
2018-12-25T00:32:09.604Z,14.82
2018-12-25T00:32:41.576Z,14.79
2018-12-25T00:33:13.545Z,14.86
2018-12-25T00:33:45.526Z,14.86
2018-12-25T00:34:17.506Z,14.86
2018-12-25T00:34:49.493Z,14.79
2018-12-25T00:35:21.528Z,14.8
2018-12-25T00:35:53.513Z,14.87
2018-12-25T00:36:25.494Z,14.79
2018-12-25T00:36:57.459Z,14.82
2018-12-25T00:37:29.441Z,14.85
2018-12-25T00:38:01.427Z,14.75
2018-12-25T00:38:33.426Z,14.8
2018-12-25T00:39:05.407Z,14.82
2018-12-25T00:39:37.404Z,14.83
2018-12-25T00:40:09.381Z,14.77
2018-12-25T00:40:41.368Z,14.86
2018-12-25T00:41:13.337Z,14.79
2018-12-25T00:41:45.319Z,14.85
2018-12-25T00:42:17.305Z,14.83
2018-12-25T00:42:49.287Z,14.82
2018-12-25T00:43:21.288Z,14.86
2018-12-25T00:43:53.256Z,14.82
2018-12-25T00:44:25.230Z,14.75
2018-12-25T00:44:57.203Z,14.74
2018-12-25T00:45:29.166Z,14.83
2018-12-25T00:46:01.144Z,14.9
2018-12-25T00:46:33.225Z,14.8
2018-12-25T00:47:05.201Z,14.8
2018-12-25T00:47:37.196Z,14.82
2018-12-25T00:48:09.190Z,14.71
2018-12-25T00:48:41.171Z,14.8
2018-12-25T00:49:14.819Z,14.71
2018-12-25T00:49:47.089Z,14.82
2018-12-25T00:50:19.055Z,14.83
2018-12-25T00:50:51.063Z,14.83
2018-12-25T00:51:23.044Z,14.83
2018-12-25T00:51:55.018Z,14.87
2018-12-25T00:52:26.990Z,14.83
2018-12-25T00:52:58.948Z,14.79
2018-12-25T00:53:31.021Z,14.75
2018-12-25T00:54:02.986Z,14.75
2018-12-25T00:54:34.966Z,14.86
2018-12-25T00:55:06.951Z,14.79
2018-12-25T00:55:38.937Z,14.83
2018-12-25T00:56:10.961Z,14.75
2018-12-25T00:56:42.934Z,14.79
2018-12-25T00:57:14.910Z,14.87
2018-12-25T00:57:46.885Z,14.85
2018-12-25T00:58:18.849Z,14.85
2018-12-25T00:58:50.815Z,14.8
2018-12-25T00:59:22.803Z,14.85
2018-12-25T00:59:54.769Z,14.82
2018-12-25T01:00:26.738Z,14.85
2018-12-25T01:00:58.705Z,14.8
2018-12-25T01:01:30.698Z,14.82
2018-12-25T01:02:02.674Z,14.8
2018-12-25T01:02:34.656Z,14.83
2018-12-25T01:03:06.643Z,14.79
2018-12-25T01:03:38.628Z,14.79
2018-12-25T01:04:10.620Z,14.85
2018-12-25T01:04:42.597Z,14.8
2018-12-25T01:05:14.573Z,14.86
2018-12-25T01:05:46.569Z,14.87
2018-12-25T01:06:18.544Z,14.79
2018-12-25T01:06:50.550Z,14.9
2018-12-25T01:07:22.526Z,14.85
2018-12-25T01:07:54.557Z,14.82
2018-12-25T01:08:26.556Z,14.8
2018-12-25T01:08:58.544Z,14.9
2018-12-25T01:09:30.516Z,14.86
2018-12-25T01:10:02.495Z,14.8
2018-12-25T01:10:34.476Z,14.87
2018-12-25T01:11:06.453Z,14.77
2018-12-25T01:11:38.442Z,14.82
2018-12-25T01:12:10.422Z,14.83
2018-12-25T01:12:42.414Z,14.82
2018-12-25T01:13:14.389Z,14.85
2018-12-25T01:13:46.366Z,14.77
2018-12-25T01:14:18.343Z,14.82
2018-12-25T01:14:50.338Z,14.85
2018-12-25T01:15:22.351Z,14.8
2018-12-25T01:15:54.331Z,14.86
2018-12-25T01:16:26.302Z,14.86
2018-12-25T01:16:58.296Z,14.82
2018-12-25T01:17:30.278Z,14.85
2018-12-25T01:18:02.244Z,14.82
2018-12-25T01:18:34.233Z,14.82
2018-12-25T01:19:06.213Z,14.8
2018-12-25T01:19:38.204Z,14.82
2018-12-25T01:20:10.175Z,14.86
2018-12-25T01:20:42.154Z,14.82
2018-12-25T01:21:14.182Z,14.86
2018-12-25T01:21:46.141Z,14.89
2018-12-25T01:22:18.093Z,14.82
2018-12-25T01:22:50.129Z,14.74
2018-12-25T01:23:22.116Z,14.8
2018-12-25T01:23:54.117Z,14.8
2018-12-25T01:24:26.100Z,14.79
2018-12-25T01:24:58.082Z,14.87
2018-12-25T01:25:30.046Z,14.75
2018-12-25T01:26:02.124Z,14.83
2018-12-25T01:26:34.180Z,14.85
2018-12-25T01:27:06.176Z,14.82
2018-12-25T01:27:38.171Z,14.8
2018-12-25T01:28:10.193Z,14.9
2018-12-25T01:28:42.267Z,14.94
2018-12-25T01:29:14.253Z,14.79
2018-12-25T01:29:46.247Z,14.74
2018-12-25T01:30:18.238Z,14.85
2018-12-25T01:30:50.222Z,14.79
2018-12-25T01:31:22.193Z,14.79
2018-12-25T01:31:54.243Z,14.85
2018-12-25T01:32:26.223Z,14.8
2018-12-25T01:32:58.200Z,14.77
2018-12-25T01:33:30.178Z,14.8
2018-12-25T01:34:02.178Z,14.86
2018-12-25T01:34:34.151Z,14.87
2018-12-25T01:35:06.128Z,14.87
2018-12-25T01:35:38.220Z,14.83
2018-12-25T01:36:10.214Z,14.82
2018-12-25T01:36:42.198Z,14.8
2018-12-25T01:37:14.159Z,14.85
2018-12-25T01:37:46.142Z,14.83
2018-12-25T01:38:18.110Z,14.89
2018-12-25T01:38:50.095Z,14.87
2018-12-25T01:39:22.070Z,14.79
2018-12-25T01:39:54.041Z,14.8
2018-12-25T01:40:26.019Z,14.86
2018-12-25T01:40:58.008Z,14.8
2018-12-25T01:41:29.991Z,14.8
2018-12-25T01:42:01.980Z,14.82
2018-12-25T01:42:33.976Z,14.83
2018-12-25T01:43:05.950Z,14.75
2018-12-25T01:43:37.924Z,14.82
2018-12-25T01:44:09.911Z,14.86
2018-12-25T01:44:41.900Z,14.83
2018-12-25T01:45:13.867Z,14.79
2018-12-25T01:45:45.842Z,14.83
2018-12-25T01:46:17.829Z,14.8
2018-12-25T01:46:49.793Z,14.71
2018-12-25T01:47:21.763Z,14.82
2018-12-25T01:47:53.754Z,14.9
2018-12-25T01:48:25.736Z,14.82
2018-12-25T01:48:57.720Z,14.71
2018-12-25T01:49:31.812Z,14.79
2018-12-25T01:50:03.919Z,14.79
2018-12-25T01:50:35.886Z,14.8
2018-12-25T01:51:07.934Z,14.8
2018-12-25T01:51:39.987Z,14.83
2018-12-25T01:52:11.975Z,14.86
2018-12-25T01:52:43.965Z,14.75
2018-12-25T01:53:15.939Z,14.87
2018-12-25T01:53:47.907Z,14.74
2018-12-25T01:54:19.865Z,14.71
2018-12-25T01:54:51.841Z,14.82
2018-12-25T01:55:23.831Z,14.8
2018-12-25T01:55:55.800Z,14.85
2018-12-25T01:56:27.768Z,14.8
2018-12-25T01:56:59.756Z,14.71
2018-12-25T01:57:31.715Z,14.79
2018-12-25T01:58:03.710Z,14.8
2018-12-25T01:58:35.762Z,14.89
2018-12-25T01:59:07.721Z,14.77
2018-12-25T01:59:39.713Z,14.8
2018-12-25T02:00:11.703Z,14.8
2018-12-25T02:00:43.685Z,14.89
2018-12-25T02:01:15.675Z,14.83
2018-12-25T02:01:47.642Z,14.82
2018-12-25T02:02:19.616Z,14.7
2018-12-25T02:02:51.754Z,14.83
2018-12-25T02:03:23.737Z,14.79
2018-12-25T02:03:55.735Z,14.82
2018-12-25T02:04:27.721Z,14.86
2018-12-25T02:04:59.677Z,14.82
2018-12-25T02:05:31.712Z,14.82
2018-12-25T02:06:03.677Z,14.9
2018-12-25T02:06:35.655Z,14.79
2018-12-25T02:07:07.642Z,14.89
2018-12-25T02:07:39.660Z,14.83
2018-12-25T02:08:11.635Z,14.85
2018-12-25T02:08:43.616Z,14.75
2018-12-25T02:09:15.687Z,14.85
2018-12-25T02:09:47.662Z,14.82
2018-12-25T02:10:19.617Z,14.85
2018-12-25T02:10:51.579Z,14.83
2018-12-25T02:11:23.578Z,14.82
2018-12-25T02:11:55.560Z,14.82
2018-12-25T02:12:27.547Z,14.85
2018-12-25T02:12:59.528Z,14.83
2018-12-25T02:13:31.507Z,14.8
2018-12-25T02:14:03.491Z,14.75
2018-12-25T02:14:35.488Z,14.74
2018-12-25T02:15:07.473Z,14.74
2018-12-25T02:15:39.509Z,14.85
2018-12-25T02:16:11.456Z,14.8
2018-12-25T02:16:43.497Z,14.79
2018-12-25T02:17:15.468Z,14.83
2018-12-25T02:17:47.443Z,14.82
2018-12-25T02:18:19.411Z,14.86
2018-12-25T02:18:51.378Z,14.85
2018-12-25T02:19:23.355Z,14.8
2018-12-25T02:19:55.333Z,14.89
2018-12-25T02:20:27.301Z,14.86
2018-12-25T02:20:59.267Z,14.9
2018-12-25T02:21:31.237Z,14.85
2018-12-25T02:22:03.209Z,14.85
2018-12-25T02:22:35.182Z,14.85
2018-12-25T02:23:07.203Z,14.83
2018-12-25T02:23:39.184Z,14.83
2018-12-25T02:24:11.161Z,14.9
2018-12-25T02:24:43.157Z,14.8
2018-12-25T02:25:15.121Z,14.82
2018-12-25T02:25:47.092Z,14.87
2018-12-25T02:26:19.164Z,14.85
2018-12-25T02:26:51.130Z,14.86
2018-12-25T02:27:23.097Z,14.87
2018-12-25T02:27:55.071Z,14.87
2018-12-25T02:28:27.044Z,14.79
2018-12-25T02:28:59.024Z,14.85
2018-12-25T02:29:31.008Z,14.85
2018-12-25T02:30:02.989Z,14.83
2018-12-25T02:30:35.007Z,14.85
2018-12-25T02:31:06.992Z,14.83
2018-12-25T02:31:38.962Z,14.89
2018-12-25T02:32:11.190Z,14.83
2018-12-25T02:32:43.181Z,14.87
2018-12-25T02:33:15.147Z,14.85
2018-12-25T02:33:47.138Z,14.87
2018-12-25T02:34:19.129Z,14.8
2018-12-25T02:34:51.110Z,14.8
2018-12-25T02:35:23.103Z,14.82
2018-12-25T02:35:55.097Z,14.86
2018-12-25T02:36:27.096Z,14.82
2018-12-25T02:36:59.087Z,14.82
2018-12-25T02:37:31.076Z,14.83
2018-12-25T02:38:03.079Z,14.83
2018-12-25T02:38:35.048Z,14.85
2018-12-25T02:39:07.147Z,14.86
2018-12-25T02:39:39.135Z,14.86
2018-12-25T02:40:11.102Z,14.89
2018-12-25T02:40:43.116Z,14.77
2018-12-25T02:41:15.123Z,14.94
2018-12-25T02:41:47.113Z,14.79
2018-12-25T02:42:19.080Z,14.85
2018-12-25T02:42:51.056Z,14.83
2018-12-25T02:43:23.114Z,14.85
2018-12-25T02:43:55.105Z,14.79
2018-12-25T02:44:27.094Z,14.85
2018-12-25T02:44:59.073Z,14.87
2018-12-25T02:45:31.201Z,14.79
2018-12-25T02:46:03.253Z,14.83
2018-12-25T02:46:35.255Z,14.82
2018-12-25T02:47:07.245Z,14.89
2018-12-25T02:47:39.227Z,14.75
2018-12-25T02:48:11.220Z,14.75
2018-12-25T02:48:43.214Z,14.85
2018-12-25T02:49:15.224Z,14.86
2018-12-25T02:49:50.290Z,14.87
2018-12-25T02:50:22.502Z,14.85
2018-12-25T02:50:54.476Z,14.82
2018-12-25T02:51:26.453Z,14.74
2018-12-25T02:51:58.434Z,14.82
2018-12-25T02:52:30.416Z,14.89
2018-12-25T02:53:02.397Z,14.8
2018-12-25T02:53:34.387Z,14.9
2018-12-25T02:54:06.368Z,14.74
2018-12-25T02:54:38.355Z,14.87
2018-12-25T02:55:10.336Z,14.83
2018-12-25T02:55:42.323Z,14.87
2018-12-25T02:56:14.320Z,14.8
2018-12-25T02:56:46.322Z,14.79
2018-12-25T02:57:18.302Z,14.82
2018-12-25T02:57:50.310Z,14.85
2018-12-25T02:58:22.295Z,14.83
2018-12-25T02:58:54.323Z,14.82
2018-12-25T02:59:26.301Z,14.82
2018-12-25T02:59:58.291Z,14.86
2018-12-25T03:00:30.267Z,14.87
2018-12-25T03:01:02.253Z,14.86
2018-12-25T03:01:34.287Z,14.79
2018-12-25T03:02:06.279Z,14.83
2018-12-25T03:02:38.263Z,14.89
2018-12-25T03:03:10.235Z,14.75
2018-12-25T03:03:42.229Z,14.9
2018-12-25T03:04:14.206Z,14.86
2018-12-25T03:04:46.182Z,14.75
2018-12-25T03:05:18.157Z,14.83
2018-12-25T03:05:50.150Z,14.83
2018-12-25T03:06:22.133Z,14.85
2018-12-25T03:06:54.108Z,14.85
2018-12-25T03:07:26.084Z,14.79
2018-12-25T03:07:58.066Z,14.79
2018-12-25T03:08:30.071Z,14.82
2018-12-25T03:09:02.037Z,14.8
2018-12-25T03:09:34.006Z,14.77
2018-12-25T03:10:06.092Z,14.75
2018-12-25T03:10:38.104Z,14.75
2018-12-25T03:11:10.090Z,14.79
2018-12-25T03:11:42.108Z,14.77
2018-12-25T03:12:14.093Z,14.79
2018-12-25T03:12:46.082Z,14.77
2018-12-25T03:13:18.072Z,14.87
2018-12-25T03:13:50.052Z,14.82
2018-12-25T03:14:22.029Z,14.79
2018-12-25T03:14:54.111Z,14.79
2018-12-25T03:15:26.090Z,14.83
2018-12-25T03:15:58.076Z,14.79
2018-12-25T03:16:30.065Z,14.79
2018-12-25T03:17:02.038Z,14.77
2018-12-25T03:17:34.041Z,14.9
2018-12-25T03:18:06.049Z,14.79
2018-12-25T03:18:38.017Z,14.82
2018-12-25T03:19:10.009Z,14.79
2018-12-25T03:19:42.008Z,14.83
2018-12-25T03:20:14.004Z,14.77
2018-12-25T03:20:45.985Z,14.85
2018-12-25T03:21:17.970Z,14.75
2018-12-25T03:21:49.948Z,14.77
2018-12-25T03:22:21.916Z,14.8
2018-12-25T03:22:53.879Z,14.82
2018-12-25T03:23:25.860Z,14.79
2018-12-25T03:23:57.831Z,14.75
2018-12-25T03:24:29.817Z,14.8
2018-12-25T03:25:01.838Z,14.83
2018-12-25T03:25:33.850Z,14.82
2018-12-25T03:26:05.831Z,14.8
2018-12-25T03:26:37.822Z,14.79
2018-12-25T03:27:09.806Z,14.8
2018-12-25T03:27:41.782Z,14.89
2018-12-25T03:28:13.747Z,14.85
2018-12-25T03:28:45.741Z,14.82
2018-12-25T03:29:17.723Z,14.77
2018-12-25T03:29:49.778Z,14.85
2018-12-25T03:30:21.750Z,14.71
2018-12-25T03:30:53.818Z,14.7
2018-12-25T03:31:25.811Z,14.79
2018-12-25T03:31:57.838Z,14.79
2018-12-25T03:32:29.823Z,14.71
2018-12-25T03:33:01.919Z,14.87
2018-12-25T03:33:33.948Z,14.79
2018-12-25T03:34:05.935Z,14.87
2018-12-25T03:34:37.906Z,14.85
2018-12-25T03:35:09.880Z,14.77
2018-12-25T03:35:41.881Z,14.82
2018-12-25T03:36:13.872Z,14.8
2018-12-25T03:36:45.862Z,14.87
2018-12-25T03:37:17.849Z,14.79
2018-12-25T03:37:49.820Z,14.85
2018-12-25T03:38:21.787Z,14.86
2018-12-25T03:38:53.754Z,14.8
2018-12-25T03:39:25.745Z,14.77
2018-12-25T03:39:57.731Z,14.9
2018-12-25T03:40:29.703Z,14.8
2018-12-25T03:41:01.795Z,14.79
2018-12-25T03:41:33.775Z,14.85
2018-12-25T03:42:05.751Z,14.83
2018-12-25T03:42:37.722Z,14.82
2018-12-25T03:43:09.697Z,14.9
2018-12-25T03:43:41.699Z,14.8
2018-12-25T03:44:13.687Z,14.85
2018-12-25T03:44:45.696Z,14.79
2018-12-25T03:45:17.681Z,14.86
2018-12-25T03:45:49.659Z,14.75
2018-12-25T03:46:21.635Z,14.83
2018-12-25T03:46:53.617Z,14.86
2018-12-25T03:47:25.588Z,14.83
2018-12-25T03:47:57.585Z,14.85
2018-12-25T03:48:29.546Z,14.8
2018-12-25T03:49:01.562Z,14.89
2018-12-25T03:49:33.578Z,14.71
2018-12-25T03:50:10.731Z,14.77
2018-12-25T03:50:43.046Z,14.79
2018-12-25T03:51:15.022Z,14.87
2018-12-25T03:51:47.006Z,14.95
2018-12-25T03:52:18.988Z,14.83
2018-12-25T03:52:50.973Z,14.89
2018-12-25T03:53:22.957Z,14.89
2018-12-25T03:53:55.053Z,14.83
2018-12-25T03:54:27.052Z,14.83
2018-12-25T03:54:59.044Z,14.82
2018-12-25T03:55:31.094Z,14.77
2018-12-25T03:56:03.087Z,14.86
2018-12-25T03:56:35.093Z,14.85
2018-12-25T03:57:07.114Z,14.95
2018-12-25T03:57:39.099Z,14.94
2018-12-25T03:58:11.131Z,14.89
2018-12-25T03:58:43.113Z,14.86
2018-12-25T03:59:15.089Z,14.93
2018-12-25T03:59:47.078Z,14.87
2018-12-25T04:00:19.072Z,14.87
2018-12-25T04:00:51.064Z,14.94
2018-12-25T04:01:23.044Z,14.87
2018-12-25T04:01:55.034Z,14.9
2018-12-25T04:02:27.031Z,14.97
2018-12-25T04:02:59.026Z,14.79
2018-12-25T04:03:31.010Z,14.9
2018-12-25T04:04:03.007Z,14.82
2018-12-25T04:04:35.015Z,14.82
2018-12-25T04:05:07.028Z,14.85
2018-12-25T04:05:39.010Z,14.9
2018-12-25T04:06:11.013Z,14.82
2018-12-25T04:06:42.996Z,14.83
2018-12-25T04:07:14.985Z,14.93
2018-12-25T04:07:46.982Z,14.83
2018-12-25T04:08:18.955Z,14.86
2018-12-25T04:08:50.953Z,14.95
2018-12-25T04:09:22.933Z,14.85
2018-12-25T04:09:54.931Z,14.94
2018-12-25T04:10:26.924Z,14.94
2018-12-25T04:10:58.903Z,14.83
2018-12-25T04:11:30.880Z,14.87
2018-12-25T04:12:02.859Z,14.83
2018-12-25T04:12:34.976Z,14.98
2018-12-25T04:13:06.956Z,14.83
2018-12-25T04:13:38.921Z,14.85
2018-12-25T04:14:10.897Z,14.89
2018-12-25T04:14:42.874Z,14.87
2018-12-25T04:15:14.882Z,14.85
2018-12-25T04:15:46.876Z,14.98
2018-12-25T04:16:18.870Z,14.94
2018-12-25T04:16:50.854Z,14.95
2018-12-25T04:17:22.837Z,14.85
2018-12-25T04:17:54.891Z,14.89
2018-12-25T04:18:26.878Z,14.94
2018-12-25T04:18:58.883Z,14.83
2018-12-25T04:19:30.868Z,14.98
2018-12-25T04:20:02.858Z,14.89
2018-12-25T04:20:34.834Z,14.85
2018-12-25T04:21:06.825Z,14.98
2018-12-25T04:21:38.813Z,15.04
2018-12-25T04:22:10.794Z,14.97
2018-12-25T04:22:42.771Z,14.9
2018-12-25T04:23:14.763Z,14.93
2018-12-25T04:23:46.743Z,15
2018-12-25T04:24:18.717Z,15.04
2018-12-25T04:24:50.697Z,14.97
2018-12-25T04:25:22.669Z,14.97
2018-12-25T04:25:54.639Z,14.87
2018-12-25T04:26:26.611Z,14.95
2018-12-25T04:26:58.581Z,15.01
2018-12-25T04:27:30.575Z,14.94
2018-12-25T04:28:02.549Z,15.01
2018-12-25T04:28:34.560Z,15.04
2018-12-25T04:29:06.547Z,14.98
2018-12-25T04:29:38.527Z,14.9
2018-12-25T04:30:10.517Z,14.94
2018-12-25T04:30:42.490Z,15
2018-12-25T04:31:14.461Z,15.02
2018-12-25T04:31:46.433Z,14.95
2018-12-25T04:32:18.401Z,14.95
2018-12-25T04:32:50.357Z,14.93
2018-12-25T04:33:22.339Z,14.98
2018-12-25T04:33:54.318Z,15.02
2018-12-25T04:34:26.286Z,14.93
2018-12-25T04:34:58.270Z,15
2018-12-25T04:35:30.252Z,14.95
2018-12-25T04:36:02.241Z,14.98
2018-12-25T04:36:34.212Z,15.05
2018-12-25T04:37:06.188Z,14.97
2018-12-25T04:37:38.171Z,14.97
2018-12-25T04:38:10.136Z,15
2018-12-25T04:38:42.099Z,14.95
2018-12-25T04:39:14.229Z,15.01
2018-12-25T04:39:46.236Z,15.01
2018-12-25T04:40:18.224Z,14.98
2018-12-25T04:40:50.195Z,14.98
2018-12-25T04:41:22.273Z,14.94
2018-12-25T04:41:54.257Z,14.98
2018-12-25T04:42:26.350Z,14.98
2018-12-25T04:42:58.326Z,15.01
2018-12-25T04:43:30.311Z,15.01
2018-12-25T04:44:02.280Z,14.97
2018-12-25T04:44:34.280Z,15.01
2018-12-25T04:45:06.262Z,15
2018-12-25T04:45:38.243Z,15
2018-12-25T04:46:10.213Z,15
2018-12-25T04:46:42.168Z,14.98
2018-12-25T04:47:14.161Z,15
2018-12-25T04:47:46.131Z,15.02
2018-12-25T04:48:18.109Z,14.97
2018-12-25T04:48:50.081Z,14.98
2018-12-25T04:49:22.069Z,15.04
2018-12-25T04:49:54.047Z,15.02
2018-12-25T04:50:29.326Z,14.98
2018-12-25T04:51:01.746Z,15.01
2018-12-25T04:51:33.747Z,15.02
2018-12-25T04:52:05.728Z,15.01
2018-12-25T04:52:37.693Z,15.01
2018-12-25T04:53:09.673Z,14.95
2018-12-25T04:53:41.648Z,15
2018-12-25T04:54:13.622Z,15.01
2018-12-25T04:54:45.597Z,15.08
2018-12-25T04:55:17.605Z,14.98
2018-12-25T04:55:49.588Z,15
2018-12-25T04:56:21.566Z,15.07
2018-12-25T04:56:53.625Z,15
2018-12-25T04:57:25.599Z,15.02
2018-12-25T04:57:57.569Z,15.1
2018-12-25T04:58:29.553Z,15.08
2018-12-25T04:59:01.527Z,15.05
2018-12-25T04:59:33.493Z,15.05
2018-12-25T05:00:05.468Z,15.01
2018-12-25T05:00:37.448Z,15
2018-12-25T05:01:09.462Z,15.05
2018-12-25T05:01:41.443Z,15.1
2018-12-25T05:02:13.438Z,15.04
2018-12-25T05:02:45.410Z,15.1
2018-12-25T05:03:17.374Z,15.12
2018-12-25T05:03:49.348Z,15
2018-12-25T05:04:21.307Z,15.02
2018-12-25T05:04:53.278Z,15.08
2018-12-25T05:05:25.294Z,15.1
2018-12-25T05:05:57.285Z,15.1
2018-12-25T05:06:29.258Z,15.12
2018-12-25T05:07:01.237Z,15.12
2018-12-25T05:07:33.222Z,15.1
2018-12-25T05:08:05.201Z,15.05
2018-12-25T05:08:37.178Z,15.02
2018-12-25T05:09:09.157Z,15.07
2018-12-25T05:09:41.125Z,15.05
2018-12-25T05:10:13.103Z,15.1
2018-12-25T05:10:45.108Z,15.04
2018-12-25T05:11:17.102Z,15.12
2018-12-25T05:11:49.090Z,15.1
2018-12-25T05:12:21.067Z,15.08
2018-12-25T05:12:53.048Z,15.04
2018-12-25T05:13:25.028Z,15.1
2018-12-25T05:13:56.990Z,15.05
2018-12-25T05:14:28.962Z,15.13
2018-12-25T05:15:00.945Z,15.08
2018-12-25T05:15:32.924Z,15.1
2018-12-25T05:16:04.893Z,15.04
2018-12-25T05:16:36.886Z,15.15
2018-12-25T05:17:08.857Z,15.07
2018-12-25T05:17:40.832Z,15.08
2018-12-25T05:18:12.808Z,15.05
2018-12-25T05:18:44.783Z,15.12
2018-12-25T05:19:16.767Z,15.07
2018-12-25T05:19:48.738Z,15.08
2018-12-25T05:20:20.718Z,15.12
2018-12-25T05:20:52.683Z,15.1
2018-12-25T05:21:24.637Z,15.07
2018-12-25T05:21:56.609Z,15.13
2018-12-25T05:22:28.582Z,15.02
2018-12-25T05:23:00.692Z,15.13
2018-12-25T05:23:32.677Z,15.12
2018-12-25T05:24:04.638Z,15.13
2018-12-25T05:24:36.733Z,15
2018-12-25T05:25:08.703Z,15.1
2018-12-25T05:25:40.703Z,15.01
2018-12-25T05:26:12.702Z,15.1
2018-12-25T05:26:44.666Z,15.12
2018-12-25T05:27:16.629Z,15.15
2018-12-25T05:27:48.594Z,15.07
2018-12-25T05:28:20.559Z,15.07
2018-12-25T05:28:52.554Z,15.04
2018-12-25T05:29:24.532Z,15.05
2018-12-25T05:29:56.517Z,15.13
2018-12-25T05:30:28.489Z,15.12
2018-12-25T05:31:00.462Z,15.08
2018-12-25T05:31:32.441Z,15.07
2018-12-25T05:32:04.440Z,15.12
2018-12-25T05:32:36.415Z,15.07
2018-12-25T05:33:08.407Z,15.15
2018-12-25T05:33:40.370Z,15.12
2018-12-25T05:34:12.365Z,15.05
2018-12-25T05:34:44.340Z,15.13
2018-12-25T05:35:16.337Z,15.1
2018-12-25T05:35:48.320Z,15.08
2018-12-25T05:36:20.286Z,15.1
2018-12-25T05:36:52.258Z,15.12
2018-12-25T05:37:24.245Z,15.12
2018-12-25T05:37:56.200Z,15.13
2018-12-25T05:38:28.194Z,15.1
2018-12-25T05:39:00.167Z,15.15
2018-12-25T05:39:32.127Z,15.12
2018-12-25T05:40:04.120Z,15.12
2018-12-25T05:40:36.073Z,15.18
2018-12-25T05:41:08.074Z,15.1
2018-12-25T05:41:40.069Z,15.12
2018-12-25T05:42:12.038Z,15.18
2018-12-25T05:42:44.003Z,15.13
2018-12-25T05:43:15.985Z,15.12
2018-12-25T05:43:47.959Z,15.18
2018-12-25T05:44:19.928Z,15.16
2018-12-25T05:44:51.902Z,15.12
2018-12-25T05:45:23.889Z,15.12
2018-12-25T05:45:55.850Z,15.18
2018-12-25T05:46:27.824Z,15.16
2018-12-25T05:46:59.807Z,15.1
2018-12-25T05:47:31.786Z,15.1
2018-12-25T05:48:03.771Z,15.1
2018-12-25T05:48:35.747Z,15.16
2018-12-25T05:49:07.716Z,15.18
2018-12-25T05:49:39.689Z,15.08
2018-12-25T05:50:11.670Z,15.15
2018-12-25T05:50:46.736Z,15.15
2018-12-25T05:51:19.004Z,15.19
2018-12-25T05:51:51.018Z,15.22
2018-12-25T05:52:23.019Z,15.18
2018-12-25T05:52:54.993Z,15.18
2018-12-25T05:53:26.953Z,15.1
2018-12-25T05:53:58.924Z,15.15
2018-12-25T05:54:30.893Z,15.12
2018-12-25T05:55:02.857Z,15.01
2018-12-25T05:55:34.831Z,15.1
2018-12-25T05:56:06.823Z,15.13
2018-12-25T05:56:38.804Z,15.13
2018-12-25T05:57:10.786Z,15.13
2018-12-25T05:57:42.856Z,15.12
2018-12-25T05:58:14.819Z,15.13
2018-12-25T05:58:46.803Z,15.07
2018-12-25T05:59:18.775Z,15.18
2018-12-25T05:59:50.767Z,15.15
2018-12-25T06:00:22.768Z,15.1
2018-12-25T06:00:54.721Z,15.08
2018-12-25T06:01:26.710Z,15.18
2018-12-25T06:01:58.682Z,15.08
2018-12-25T06:02:30.663Z,15.12
2018-12-25T06:03:02.629Z,15.2
2018-12-25T06:03:34.605Z,15.12
2018-12-25T06:04:06.568Z,15.08
2018-12-25T06:04:38.544Z,15.12
2018-12-25T06:05:10.529Z,15.16
2018-12-25T06:05:42.501Z,15.22
2018-12-25T06:06:14.474Z,15.15
2018-12-25T06:06:46.457Z,15.19
2018-12-25T06:07:18.443Z,15.07
2018-12-25T06:07:50.404Z,15.1
2018-12-25T06:08:22.381Z,15.15
2018-12-25T06:08:54.385Z,15.15
2018-12-25T06:09:26.368Z,15.08
2018-12-25T06:09:58.346Z,15.1
2018-12-25T06:10:30.318Z,15.08
2018-12-25T06:11:02.354Z,15.12
2018-12-25T06:11:34.360Z,15.19
2018-12-25T06:12:06.339Z,15.12
2018-12-25T06:12:38.323Z,15.22
2018-12-25T06:13:10.289Z,15.08
2018-12-25T06:13:42.277Z,15.08
2018-12-25T06:14:14.250Z,15.1
2018-12-25T06:14:46.219Z,15.1
2018-12-25T06:15:18.193Z,15.1
2018-12-25T06:15:50.162Z,15.12
2018-12-25T06:16:22.145Z,15.12
2018-12-25T06:16:54.118Z,15.08
2018-12-25T06:17:26.099Z,15.18
2018-12-25T06:17:58.067Z,15.13
2018-12-25T06:18:30.025Z,15.16
2018-12-25T06:19:02.013Z,15.26
2018-12-25T06:19:33.998Z,15.15
2018-12-25T06:20:05.967Z,15.19
2018-12-25T06:20:37.929Z,15.2
2018-12-25T06:21:09.906Z,15.15
2018-12-25T06:21:41.888Z,15.15
2018-12-25T06:22:13.863Z,15.12
2018-12-25T06:22:45.844Z,15.12
2018-12-25T06:23:17.813Z,15.12
2018-12-25T06:23:49.783Z,15.08
2018-12-25T06:24:21.776Z,15.12
2018-12-25T06:24:53.746Z,15.13
2018-12-25T06:25:25.718Z,15.15
2018-12-25T06:25:57.694Z,15.13
2018-12-25T06:26:29.675Z,15.16
2018-12-25T06:27:01.734Z,15.16
2018-12-25T06:27:33.720Z,15.1
2018-12-25T06:28:05.699Z,15.12
2018-12-25T06:28:37.664Z,15.1
2018-12-25T06:29:09.647Z,15.15
2018-12-25T06:29:41.617Z,15.1
2018-12-25T06:30:13.597Z,15.13
2018-12-25T06:30:45.571Z,15.15
2018-12-25T06:31:17.547Z,15.13
2018-12-25T06:31:49.518Z,15.15
2018-12-25T06:32:21.496Z,15.15
2018-12-25T06:32:53.528Z,15.18
2018-12-25T06:33:25.493Z,15.16
2018-12-25T06:33:57.468Z,15.13
2018-12-25T06:34:29.440Z,15.1
2018-12-25T06:35:01.422Z,15.15
2018-12-25T06:35:33.436Z,15.13
2018-12-25T06:36:05.477Z,15.15
2018-12-25T06:36:37.468Z,15.07
2018-12-25T06:37:09.468Z,15.13
2018-12-25T06:37:41.441Z,15.15
2018-12-25T06:38:13.404Z,15.12
2018-12-25T06:38:45.384Z,15.1
2018-12-25T06:39:17.378Z,15.13
